sensor_id;sensor_type;location;lat;lon;timestamp;temperature;humidity
42037;DHT22;75222;52.004;5.908;2024-01-30T00:01:53;10.10;85.00
42037;DHT22;75222;52.004;5.908;2024-01-30T00:04:19;10.10;84.70
42037;DHT22;75222;52.004;5.908;2024-01-30T00:06:45;10.10;85.00
42037;DHT22;75222;52.004;5.908;2024-01-30T00:09:11;10.10;85.10
42037;DHT22;75222;52.004;5.908;2024-01-30T00:11:37;10.10;85.10
42037;DHT22;75222;52.004;5.908;2024-01-30T00:14:03;10.00;85.00
42037;DHT22;75222;52.004;5.908;2024-01-30T00:16:29;10.00;85.00
42037;DHT22;75222;52.004;5.908;2024-01-30T00:18:55;10.00;85.00
42037;DHT22;75222;52.004;5.908;2024-01-30T00:21:24;10.00;85.10
42037;DHT22;75222;52.004;5.908;2024-01-30T00:23:50;10.00;85.20
42037;DHT22;75222;52.004;5.908;2024-01-30T00:26:16;10.00;85.20
42037;DHT22;75222;52.004;5.908;2024-01-30T00:28:42;10.00;85.20
42037;DHT22;75222;52.004;5.908;2024-01-30T00:31:07;10.00;85.30
42037;DHT22;75222;52.004;5.908;2024-01-30T00:33:33;10.00;85.30
42037;DHT22;75222;52.004;5.908;2024-01-30T00:35:58;10.00;85.30
42037;DHT22;75222;52.004;5.908;2024-01-30T00:38:24;10.00;85.30
42037;DHT22;75222;52.004;5.908;2024-01-30T00:40:49;10.00;85.30
42037;DHT22;75222;52.004;5.908;2024-01-30T00:43:15;10.00;86.00
42037;DHT22;75222;52.004;5.908;2024-01-30T00:45:43;10.00;85.30
42037;DHT22;75222;52.004;5.908;2024-01-30T00:48:08;9.90;85.30
42037;DHT22;75222;52.004;5.908;2024-01-30T00:50:34;9.90;85.30
42037;DHT22;75222;52.004;5.908;2024-01-30T00:53:00;9.90;85.30
42037;DHT22;75222;52.004;5.908;2024-01-30T00:55:25;9.80;85.30
42037;DHT22;75222;52.004;5.908;2024-01-30T00:57:51;9.80;85.40
42037;DHT22;75222;52.004;5.908;2024-01-30T01:00:16;9.80;85.40
42037;DHT22;75222;52.004;5.908;2024-01-30T01:02:42;9.80;85.50
42037;DHT22;75222;52.004;5.908;2024-01-30T01:05:08;9.80;85.60
42037;DHT22;75222;52.004;5.908;2024-01-30T01:07:34;9.70;85.60
42037;DHT22;75222;52.004;5.908;2024-01-30T01:10:00;9.70;85.60
42037;DHT22;75222;52.004;5.908;2024-01-30T01:12:25;9.70;85.60
42037;DHT22;75222;52.004;5.908;2024-01-30T01:14:51;9.70;85.60
42037;DHT22;75222;52.004;5.908;2024-01-30T01:17:16;9.70;85.70
42037;DHT22;75222;52.004;5.908;2024-01-30T01:19:43;9.70;85.70
42037;DHT22;75222;52.004;5.908;2024-01-30T01:22:09;9.70;85.70
42037;DHT22;75222;52.004;5.908;2024-01-30T01:24:35;9.70;85.70
42037;DHT22;75222;52.004;5.908;2024-01-30T01:27:01;9.70;85.80
42037;DHT22;75222;52.004;5.908;2024-01-30T01:29:27;9.70;85.70
42037;DHT22;75222;52.004;5.908;2024-01-30T01:31:57;9.70;85.70
42037;DHT22;75222;52.004;5.908;2024-01-30T01:34:23;9.60;85.80
42037;DHT22;75222;52.004;5.908;2024-01-30T01:36:49;9.60;85.80
42037;DHT22;75222;52.004;5.908;2024-01-30T01:39:15;9.60;85.80
42037;DHT22;75222;52.004;5.908;2024-01-30T01:41:41;9.60;85.80
42037;DHT22;75222;52.004;5.908;2024-01-30T01:44:07;9.60;85.80
42037;DHT22;75222;52.004;5.908;2024-01-30T01:46:33;9.60;85.80
42037;DHT22;75222;52.004;5.908;2024-01-30T01:49:00;9.60;85.90
42037;DHT22;75222;52.004;5.908;2024-01-30T01:51:28;9.60;85.80
42037;DHT22;75222;52.004;5.908;2024-01-30T01:53:55;9.60;85.90
42037;DHT22;75222;52.004;5.908;2024-01-30T01:56:23;9.60;86.00
42037;DHT22;75222;52.004;5.908;2024-01-30T01:58:50;9.50;85.90
42037;DHT22;75222;52.004;5.908;2024-01-30T02:01:19;9.50;85.90
42037;DHT22;75222;52.004;5.908;2024-01-30T02:03:46;9.50;85.90
42037;DHT22;75222;52.004;5.908;2024-01-30T02:06:15;9.60;86.00
42037;DHT22;75222;52.004;5.908;2024-01-30T02:08:41;9.50;85.90
42037;DHT22;75222;52.004;5.908;2024-01-30T02:11:07;9.50;85.90
42037;DHT22;75222;52.004;5.908;2024-01-30T02:13:33;9.50;85.90
42037;DHT22;75222;52.004;5.908;2024-01-30T02:15:59;9.50;85.90
42037;DHT22;75222;52.004;5.908;2024-01-30T02:18:26;9.50;85.80
42037;DHT22;75222;52.004;5.908;2024-01-30T02:20:53;9.50;85.90
42037;DHT22;75222;52.004;5.908;2024-01-30T02:23:20;9.50;85.80
42037;DHT22;75222;52.004;5.908;2024-01-30T02:25:46;9.50;85.80
42037;DHT22;75222;52.004;5.908;2024-01-30T02:28:12;9.40;85.80
42037;DHT22;75222;52.004;5.908;2024-01-30T02:30:39;9.40;85.90
42037;DHT22;75222;52.004;5.908;2024-01-30T02:33:04;9.40;85.90
42037;DHT22;75222;52.004;5.908;2024-01-30T02:35:30;9.30;85.80
42037;DHT22;75222;52.004;5.908;2024-01-30T02:37:56;9.30;86.00
42037;DHT22;75222;52.004;5.908;2024-01-30T02:40:21;9.20;86.20
42037;DHT22;75222;52.004;5.908;2024-01-30T02:42:47;9.20;86.20
42037;DHT22;75222;52.004;5.908;2024-01-30T02:45:16;9.20;86.20
42037;DHT22;75222;52.004;5.908;2024-01-30T02:47:41;9.20;86.30
42037;DHT22;75222;52.004;5.908;2024-01-30T02:50:07;9.20;86.30
42037;DHT22;75222;52.004;5.908;2024-01-30T02:52:33;9.20;86.30
42037;DHT22;75222;52.004;5.908;2024-01-30T02:54:59;9.20;86.20
42037;DHT22;75222;52.004;5.908;2024-01-30T02:57:24;9.20;86.30
42037;DHT22;75222;52.004;5.908;2024-01-30T02:59:50;9.10;86.10
42037;DHT22;75222;52.004;5.908;2024-01-30T03:02:15;9.20;86.20
42037;DHT22;75222;52.004;5.908;2024-01-30T03:04:41;9.20;86.30
42037;DHT22;75222;52.004;5.908;2024-01-30T03:07:08;9.20;86.30
42037;DHT22;75222;52.004;5.908;2024-01-30T03:09:33;9.20;86.30
42037;DHT22;75222;52.004;5.908;2024-01-30T03:11:59;9.10;86.20
42037;DHT22;75222;52.004;5.908;2024-01-30T03:14:24;9.20;86.20
42037;DHT22;75222;52.004;5.908;2024-01-30T03:16:50;9.20;86.20
42037;DHT22;75222;52.004;5.908;2024-01-30T03:19:18;9.10;86.20
42037;DHT22;75222;52.004;5.908;2024-01-30T03:21:44;9.10;86.20
42037;DHT22;75222;52.004;5.908;2024-01-30T03:24:09;9.10;86.20
42037;DHT22;75222;52.004;5.908;2024-01-30T03:26:35;9.10;86.10
42037;DHT22;75222;52.004;5.908;2024-01-30T03:29:01;9.10;86.10
42037;DHT22;75222;52.004;5.908;2024-01-30T03:31:27;9.10;86.10
42037;DHT22;75222;52.004;5.908;2024-01-30T03:33:52;9.10;86.10
42037;DHT22;75222;52.004;5.908;2024-01-30T03:36:18;9.10;86.20
42037;DHT22;75222;52.004;5.908;2024-01-30T03:38:43;9.10;86.20
42037;DHT22;75222;52.004;5.908;2024-01-30T03:41:09;9.10;86.20
42037;DHT22;75222;52.004;5.908;2024-01-30T03:43:35;9.10;86.20
42037;DHT22;75222;52.004;5.908;2024-01-30T03:46:02;9.10;86.20
42037;DHT22;75222;52.004;5.908;2024-01-30T03:48:28;9.10;86.20
42037;DHT22;75222;52.004;5.908;2024-01-30T03:50:53;9.10;86.20
42037;DHT22;75222;52.004;5.908;2024-01-30T03:53:19;9.10;86.20
42037;DHT22;75222;52.004;5.908;2024-01-30T03:55:44;9.10;86.30
42037;DHT22;75222;52.004;5.908;2024-01-30T03:58:10;9.10;86.30
42037;DHT22;75222;52.004;5.908;2024-01-30T04:00:35;9.10;86.20
42037;DHT22;75222;52.004;5.908;2024-01-30T04:03:01;9.10;86.20
42037;DHT22;75222;52.004;5.908;2024-01-30T04:05:26;9.10;86.30
42037;DHT22;75222;52.004;5.908;2024-01-30T04:07:52;9.00;86.30
42037;DHT22;75222;52.004;5.908;2024-01-30T04:10:17;9.00;86.30
42037;DHT22;75222;52.004;5.908;2024-01-30T04:12:43;9.00;86.30
42037;DHT22;75222;52.004;5.908;2024-01-30T04:15:09;9.00;86.40
42037;DHT22;75222;52.004;5.908;2024-01-30T04:17:34;9.00;86.40
42037;DHT22;75222;52.004;5.908;2024-01-30T04:20:00;9.00;86.40
42037;DHT22;75222;52.004;5.908;2024-01-30T04:22:25;8.90;86.40
42037;DHT22;75222;52.004;5.908;2024-01-30T04:24:51;9.00;86.40
42037;DHT22;75222;52.004;5.908;2024-01-30T04:27:17;9.00;86.40
42037;DHT22;75222;52.004;5.908;2024-01-30T04:29:42;8.90;86.40
42037;DHT22;75222;52.004;5.908;2024-01-30T04:32:08;9.00;86.50
42037;DHT22;75222;52.004;5.908;2024-01-30T04:34:35;9.00;86.70
42037;DHT22;75222;52.004;5.908;2024-01-30T04:37:01;9.00;86.40
42037;DHT22;75222;52.004;5.908;2024-01-30T04:39:26;9.00;86.40
42037;DHT22;75222;52.004;5.908;2024-01-30T04:41:52;9.00;86.40
42037;DHT22;75222;52.004;5.908;2024-01-30T04:44:17;9.00;86.40
42037;DHT22;75222;52.004;5.908;2024-01-30T04:46:43;9.10;86.40
42037;DHT22;75222;52.004;5.908;2024-01-30T04:49:08;9.10;86.50
42037;DHT22;75222;52.004;5.908;2024-01-30T04:51:34;9.10;86.50
42037;DHT22;75222;52.004;5.908;2024-01-30T04:53:59;9.10;86.40
42037;DHT22;75222;52.004;5.908;2024-01-30T04:56:25;9.10;86.40
42037;DHT22;75222;52.004;5.908;2024-01-30T04:58:50;9.10;86.40
42037;DHT22;75222;52.004;5.908;2024-01-30T05:01:17;9.10;86.40
42037;DHT22;75222;52.004;5.908;2024-01-30T05:03:42;9.20;86.50
42037;DHT22;75222;52.004;5.908;2024-01-30T05:06:08;9.20;86.50
42037;DHT22;75222;52.004;5.908;2024-01-30T05:08:33;9.20;86.50
42037;DHT22;75222;52.004;5.908;2024-01-30T05:11:02;9.20;86.50
42037;DHT22;75222;52.004;5.908;2024-01-30T05:13:32;9.30;86.60
42037;DHT22;75222;52.004;5.908;2024-01-30T05:15:57;9.30;86.60
42037;DHT22;75222;52.004;5.908;2024-01-30T05:18:23;9.30;86.50
42037;DHT22;75222;52.004;5.908;2024-01-30T05:20:50;9.30;86.50
42037;DHT22;75222;52.004;5.908;2024-01-30T05:23:16;9.30;86.50
42037;DHT22;75222;52.004;5.908;2024-01-30T05:25:41;9.30;86.50
42037;DHT22;75222;52.004;5.908;2024-01-30T05:28:07;9.30;86.60
42037;DHT22;75222;52.004;5.908;2024-01-30T05:30:32;9.30;86.60
42037;DHT22;75222;52.004;5.908;2024-01-30T05:32:58;9.30;86.70
42037;DHT22;75222;52.004;5.908;2024-01-30T05:35:23;9.40;86.90
42037;DHT22;75222;52.004;5.908;2024-01-30T05:37:49;9.40;86.90
42037;DHT22;75222;52.004;5.908;2024-01-30T05:40:15;9.40;86.90
42037;DHT22;75222;52.004;5.908;2024-01-30T05:42:41;9.40;86.90
42037;DHT22;75222;52.004;5.908;2024-01-30T05:45:07;9.40;86.90
42037;DHT22;75222;52.004;5.908;2024-01-30T05:47:34;9.40;87.30
42037;DHT22;75222;52.004;5.908;2024-01-30T05:49:59;9.40;87.40
42037;DHT22;75222;52.004;5.908;2024-01-30T05:52:25;9.40;87.30
42037;DHT22;75222;52.004;5.908;2024-01-30T05:54:50;9.50;87.30
42037;DHT22;75222;52.004;5.908;2024-01-30T05:57:16;9.50;87.20
42037;DHT22;75222;52.004;5.908;2024-01-30T05:59:43;9.50;87.10
42037;DHT22;75222;52.004;5.908;2024-01-30T06:02:10;9.60;87.20
42037;DHT22;75222;52.004;5.908;2024-01-30T06:04:36;9.60;87.20
42037;DHT22;75222;52.004;5.908;2024-01-30T06:07:02;9.60;87.10
42037;DHT22;75222;52.004;5.908;2024-01-30T06:09:28;9.60;87.20
42037;DHT22;75222;52.004;5.908;2024-01-30T06:11:54;9.60;87.20
42037;DHT22;75222;52.004;5.908;2024-01-30T06:14:20;9.60;87.20
42037;DHT22;75222;52.004;5.908;2024-01-30T06:16:46;9.70;87.30
42037;DHT22;75222;52.004;5.908;2024-01-30T06:19:11;9.70;87.60
42037;DHT22;75222;52.004;5.908;2024-01-30T06:21:37;9.70;87.90
42037;DHT22;75222;52.004;5.908;2024-01-30T06:24:04;9.70;87.90
42037;DHT22;75222;52.004;5.908;2024-01-30T06:26:29;9.70;87.80
42037;DHT22;75222;52.004;5.908;2024-01-30T06:28:55;9.70;87.90
42037;DHT22;75222;52.004;5.908;2024-01-30T06:31:20;9.70;87.90
42037;DHT22;75222;52.004;5.908;2024-01-30T06:33:49;9.80;88.00
42037;DHT22;75222;52.004;5.908;2024-01-30T06:36:15;9.80;88.00
42037;DHT22;75222;52.004;5.908;2024-01-30T06:38:41;9.80;87.90
42037;DHT22;75222;52.004;5.908;2024-01-30T06:41:07;9.80;87.80
42037;DHT22;75222;52.004;5.908;2024-01-30T06:43:33;9.80;87.80
42037;DHT22;75222;52.004;5.908;2024-01-30T06:45:58;9.80;87.90
42037;DHT22;75222;52.004;5.908;2024-01-30T06:48:25;9.80;88.10
42037;DHT22;75222;52.004;5.908;2024-01-30T06:50:53;9.80;88.30
42037;DHT22;75222;52.004;5.908;2024-01-30T06:53:19;9.90;88.30
42037;DHT22;75222;52.004;5.908;2024-01-30T06:55:44;9.90;88.30
42037;DHT22;75222;52.004;5.908;2024-01-30T06:58:10;9.90;88.20
42037;DHT22;75222;52.004;5.908;2024-01-30T07:00:35;9.90;88.20
42037;DHT22;75222;52.004;5.908;2024-01-30T07:03:01;9.90;88.30
42037;DHT22;75222;52.004;5.908;2024-01-30T07:05:27;9.90;88.20
42037;DHT22;75222;52.004;5.908;2024-01-30T07:07:52;9.90;88.30
42037;DHT22;75222;52.004;5.908;2024-01-30T07:10:18;10.00;88.50
42037;DHT22;75222;52.004;5.908;2024-01-30T07:12:43;10.00;88.60
42037;DHT22;75222;52.004;5.908;2024-01-30T07:15:09;10.00;89.10
42037;DHT22;75222;52.004;5.908;2024-01-30T07:17:35;10.00;89.10
42037;DHT22;75222;52.004;5.908;2024-01-30T07:20:01;10.10;89.10
42037;DHT22;75222;52.004;5.908;2024-01-30T07:22:29;10.10;89.10
42037;DHT22;75222;52.004;5.908;2024-01-30T07:24:55;10.10;89.00
42037;DHT22;75222;52.004;5.908;2024-01-30T07:27:21;10.10;89.00
42037;DHT22;75222;52.004;5.908;2024-01-30T07:29:47;10.10;89.00
42037;DHT22;75222;52.004;5.908;2024-01-30T07:32:12;10.10;89.00
42037;DHT22;75222;52.004;5.908;2024-01-30T07:34:38;10.20;89.10
42037;DHT22;75222;52.004;5.908;2024-01-30T07:37:03;10.10;89.10
42037;DHT22;75222;52.004;5.908;2024-01-30T07:39:29;10.10;89.20
42037;DHT22;75222;52.004;5.908;2024-01-30T07:41:54;10.20;89.30
42037;DHT22;75222;52.004;5.908;2024-01-30T07:44:20;10.20;89.40
42037;DHT22;75222;52.004;5.908;2024-01-30T07:46:46;10.20;89.30
42037;DHT22;75222;52.004;5.908;2024-01-30T07:49:11;10.20;89.30
42037;DHT22;75222;52.004;5.908;2024-01-30T07:51:39;10.20;89.40
42037;DHT22;75222;52.004;5.908;2024-01-30T07:54:14;10.20;89.50
42037;DHT22;75222;52.004;5.908;2024-01-30T07:56:40;10.20;89.60
42037;DHT22;75222;52.004;5.908;2024-01-30T07:59:09;10.20;89.70
42037;DHT22;75222;52.004;5.908;2024-01-30T08:01:34;10.30;89.70
42037;DHT22;75222;52.004;5.908;2024-01-30T08:04:00;10.30;89.50
42037;DHT22;75222;52.004;5.908;2024-01-30T08:06:25;10.30;89.50
42037;DHT22;75222;52.004;5.908;2024-01-30T08:08:51;10.30;89.50
42037;DHT22;75222;52.004;5.908;2024-01-30T08:11:20;10.30;89.50
42037;DHT22;75222;52.004;5.908;2024-01-30T08:13:45;10.30;89.50
42037;DHT22;75222;52.004;5.908;2024-01-30T08:16:11;10.40;89.60
42037;DHT22;75222;52.004;5.908;2024-01-30T08:18:37;10.40;89.50
42037;DHT22;75222;52.004;5.908;2024-01-30T08:21:03;10.40;89.40
42037;DHT22;75222;52.004;5.908;2024-01-30T08:23:30;10.40;89.40
42037;DHT22;75222;52.004;5.908;2024-01-30T08:25:55;10.50;89.40
42037;DHT22;75222;52.004;5.908;2024-01-30T08:28:21;10.50;89.30
42037;DHT22;75222;52.004;5.908;2024-01-30T08:30:46;10.60;89.30
42037;DHT22;75222;52.004;5.908;2024-01-30T08:33:12;10.60;89.20
42037;DHT22;75222;52.004;5.908;2024-01-30T08:35:37;10.60;89.30
42037;DHT22;75222;52.004;5.908;2024-01-30T08:38:03;10.70;89.30
42037;DHT22;75222;52.004;5.908;2024-01-30T08:40:29;10.60;89.20
42037;DHT22;75222;52.004;5.908;2024-01-30T08:42:56;10.70;89.20
42037;DHT22;75222;52.004;5.908;2024-01-30T08:45:21;10.70;89.20
42037;DHT22;75222;52.004;5.908;2024-01-30T08:47:47;10.80;89.10
42037;DHT22;75222;52.004;5.908;2024-01-30T08:50:12;10.80;89.10
42037;DHT22;75222;52.004;5.908;2024-01-30T08:52:38;10.80;89.00
42037;DHT22;75222;52.004;5.908;2024-01-30T08:55:04;10.80;89.10
42037;DHT22;75222;52.004;5.908;2024-01-30T08:57:30;10.80;89.10
42037;DHT22;75222;52.004;5.908;2024-01-30T08:59:56;10.90;89.00
42037;DHT22;75222;52.004;5.908;2024-01-30T09:02:21;10.90;89.10
42037;DHT22;75222;52.004;5.908;2024-01-30T09:04:47;10.90;89.10
42037;DHT22;75222;52.004;5.908;2024-01-30T09:07:13;11.00;89.10
42037;DHT22;75222;52.004;5.908;2024-01-30T09:09:39;11.00;89.10
42037;DHT22;75222;52.004;5.908;2024-01-30T09:12:08;10.90;89.10
42037;DHT22;75222;52.004;5.908;2024-01-30T09:14:38;11.00;89.20
42037;DHT22;75222;52.004;5.908;2024-01-30T09:17:04;11.00;89.10
42037;DHT22;75222;52.004;5.908;2024-01-30T09:19:30;11.00;89.10
42037;DHT22;75222;52.004;5.908;2024-01-30T09:21:56;11.00;89.10
42037;DHT22;75222;52.004;5.908;2024-01-30T09:24:21;11.10;89.00
42037;DHT22;75222;52.004;5.908;2024-01-30T09:26:47;11.10;89.00
42037;DHT22;75222;52.004;5.908;2024-01-30T09:29:12;11.10;89.00
42037;DHT22;75222;52.004;5.908;2024-01-30T09:31:38;11.10;89.10
42037;DHT22;75222;52.004;5.908;2024-01-30T09:34:03;11.10;89.30
42037;DHT22;75222;52.004;5.908;2024-01-30T09:36:29;11.10;89.40
42037;DHT22;75222;52.004;5.908;2024-01-30T09:38:54;11.10;89.40
42037;DHT22;75222;52.004;5.908;2024-01-30T09:41:24;11.10;89.40
42037;DHT22;75222;52.004;5.908;2024-01-30T09:43:50;11.20;89.40
42037;DHT22;75222;52.004;5.908;2024-01-30T09:46:17;11.20;89.30
42037;DHT22;75222;52.004;5.908;2024-01-30T09:48:46;11.20;89.30
42037;DHT22;75222;52.004;5.908;2024-01-30T09:51:12;11.30;89.20
42037;DHT22;75222;52.004;5.908;2024-01-30T09:53:40;11.30;89.20
42037;DHT22;75222;52.004;5.908;2024-01-30T09:56:05;11.30;89.20
42037;DHT22;75222;52.004;5.908;2024-01-30T09:58:31;11.30;89.20
42037;DHT22;75222;52.004;5.908;2024-01-30T10:00:57;11.40;89.10
42037;DHT22;75222;52.004;5.908;2024-01-30T10:03:22;11.40;89.20
42037;DHT22;75222;52.004;5.908;2024-01-30T10:05:51;11.40;89.20
42037;DHT22;75222;52.004;5.908;2024-01-30T10:08:20;11.40;89.20
42037;DHT22;75222;52.004;5.908;2024-01-30T10:10:47;11.50;89.20
42037;DHT22;75222;52.004;5.908;2024-01-30T10:13:13;11.50;89.20
42037;DHT22;75222;52.004;5.908;2024-01-30T10:15:38;11.50;89.00
42037;DHT22;75222;52.004;5.908;2024-01-30T10:18:05;11.60;89.00
42037;DHT22;75222;52.004;5.908;2024-01-30T10:20:32;11.60;88.90
42037;DHT22;75222;52.004;5.908;2024-01-30T10:22:58;11.60;89.50
42037;DHT22;75222;52.004;5.908;2024-01-30T10:25:24;11.70;88.90
42037;DHT22;75222;52.004;5.908;2024-01-30T10:27:53;11.70;88.90
42037;DHT22;75222;52.004;5.908;2024-01-30T10:30:22;11.70;88.80
42037;DHT22;75222;52.004;5.908;2024-01-30T10:32:48;11.80;88.80
42037;DHT22;75222;52.004;5.908;2024-01-30T10:35:14;11.70;88.90
42037;DHT22;75222;52.004;5.908;2024-01-30T10:37:41;11.80;89.00
42037;DHT22;75222;52.004;5.908;2024-01-30T10:40:09;11.80;89.00
42037;DHT22;75222;52.004;5.908;2024-01-30T10:42:42;11.80;89.00
42037;DHT22;75222;52.004;5.908;2024-01-30T10:45:10;11.80;89.00
42037;DHT22;75222;52.004;5.908;2024-01-30T10:47:40;11.80;89.00
42037;DHT22;75222;52.004;5.908;2024-01-30T10:50:07;11.90;89.10
42037;DHT22;75222;52.004;5.908;2024-01-30T10:52:33;11.90;89.10
42037;DHT22;75222;52.004;5.908;2024-01-30T10:54:59;11.90;89.10
42037;DHT22;75222;52.004;5.908;2024-01-30T10:57:27;11.90;89.10
42037;DHT22;75222;52.004;5.908;2024-01-30T10:59:55;12.00;89.10
42037;DHT22;75222;52.004;5.908;2024-01-30T11:02:22;12.00;89.20
42037;DHT22;75222;52.004;5.908;2024-01-30T11:04:49;12.10;89.20
42037;DHT22;75222;52.004;5.908;2024-01-30T11:07:15;12.10;89.10
42037;DHT22;75222;52.004;5.908;2024-01-30T11:09:49;12.20;89.00
42037;DHT22;75222;52.004;5.908;2024-01-30T11:12:15;12.20;88.90
42037;DHT22;75222;52.004;5.908;2024-01-30T11:14:40;12.20;88.80
42037;DHT22;75222;52.004;5.908;2024-01-30T11:17:06;12.30;88.70
42037;DHT22;75222;52.004;5.908;2024-01-30T11:19:33;12.40;88.70
42037;DHT22;75222;52.004;5.908;2024-01-30T11:21:59;12.50;88.60
42037;DHT22;75222;52.004;5.908;2024-01-30T11:24:27;12.50;88.30
42037;DHT22;75222;52.004;5.908;2024-01-30T11:26:56;12.60;88.20
42037;DHT22;75222;52.004;5.908;2024-01-30T11:29:27;12.60;88.10
42037;DHT22;75222;52.004;5.908;2024-01-30T11:31:57;12.60;88.10
42037;DHT22;75222;52.004;5.908;2024-01-30T11:34:24;12.60;88.20
42037;DHT22;75222;52.004;5.908;2024-01-30T11:36:56;12.60;88.20
42037;DHT22;75222;52.004;5.908;2024-01-30T11:39:25;12.60;88.20
42037;DHT22;75222;52.004;5.908;2024-01-30T11:41:52;12.60;88.20
42037;DHT22;75222;52.004;5.908;2024-01-30T11:44:19;12.60;88.40
42037;DHT22;75222;52.004;5.908;2024-01-30T11:46:47;12.60;88.40
42037;DHT22;75222;52.004;5.908;2024-01-30T11:49:13;12.60;88.40
42037;DHT22;75222;52.004;5.908;2024-01-30T11:51:38;12.70;88.40
42037;DHT22;75222;52.004;5.908;2024-01-30T11:54:04;12.70;88.30
42037;DHT22;75222;52.004;5.908;2024-01-30T11:56:30;12.80;88.20
42037;DHT22;75222;52.004;5.908;2024-01-30T11:58:55;12.80;88.00
42037;DHT22;75222;52.004;5.908;2024-01-30T12:01:21;12.90;87.90
42037;DHT22;75222;52.004;5.908;2024-01-30T12:03:50;13.00;87.70
42037;DHT22;75222;52.004;5.908;2024-01-30T12:06:16;13.00;87.50
42037;DHT22;75222;52.004;5.908;2024-01-30T12:08:42;13.00;87.40
42037;DHT22;75222;52.004;5.908;2024-01-30T12:11:07;13.00;87.30
42037;DHT22;75222;52.004;5.908;2024-01-30T12:13:33;13.00;87.30
42037;DHT22;75222;52.004;5.908;2024-01-30T12:16:00;13.00;87.30
42037;DHT22;75222;52.004;5.908;2024-01-30T12:18:26;13.10;87.20
42037;DHT22;75222;52.004;5.908;2024-01-30T12:20:59;13.20;86.80
42037;DHT22;75222;52.004;5.908;2024-01-30T12:23:25;13.60;86.20
42037;DHT22;75222;52.004;5.908;2024-01-30T12:25:52;14.20;84.60
42037;DHT22;75222;52.004;5.908;2024-01-30T12:28:17;14.70;82.60
42037;DHT22;75222;52.004;5.908;2024-01-30T12:30:43;14.40;82.20
42037;DHT22;75222;52.004;5.908;2024-01-30T12:33:09;14.10;82.80
42037;DHT22;75222;52.004;5.908;2024-01-30T12:35:35;13.90;83.40
42037;DHT22;75222;52.004;5.908;2024-01-30T12:38:01;13.70;84.00
42037;DHT22;75222;52.004;5.908;2024-01-30T12:40:27;13.60;84.30
42037;DHT22;75222;52.004;5.908;2024-01-30T12:42:54;13.40;84.60
42037;DHT22;75222;52.004;5.908;2024-01-30T12:45:19;13.20;84.60
42037;DHT22;75222;52.004;5.908;2024-01-30T12:47:47;13.10;84.90
42037;DHT22;75222;52.004;5.908;2024-01-30T12:50:13;12.90;85.00
42037;DHT22;75222;52.004;5.908;2024-01-30T12:52:42;13.10;84.80
42037;DHT22;75222;52.004;5.908;2024-01-30T12:55:08;12.90;84.80
42037;DHT22;75222;52.004;5.908;2024-01-30T12:57:33;12.80;85.00
42037;DHT22;75222;52.004;5.908;2024-01-30T12:59:59;12.70;85.30
42037;DHT22;75222;52.004;5.908;2024-01-30T13:02:25;12.50;85.10
42037;DHT22;75222;52.004;5.908;2024-01-30T13:04:51;12.50;85.30
42037;DHT22;75222;52.004;5.908;2024-01-30T13:07:17;12.40;85.30
42037;DHT22;75222;52.004;5.908;2024-01-30T13:09:43;12.40;85.00
42037;DHT22;75222;52.004;5.908;2024-01-30T13:12:09;12.40;84.90
42037;DHT22;75222;52.004;5.908;2024-01-30T13:14:35;12.30;85.00
42037;DHT22;75222;52.004;5.908;2024-01-30T13:17:00;12.30;84.70
42037;DHT22;75222;52.004;5.908;2024-01-30T13:19:26;12.40;84.80
42037;DHT22;75222;52.004;5.908;2024-01-30T13:21:52;12.30;84.60
42037;DHT22;75222;52.004;5.908;2024-01-30T13:24:18;12.40;84.50
42037;DHT22;75222;52.004;5.908;2024-01-30T13:26:46;12.50;84.30
42037;DHT22;75222;52.004;5.908;2024-01-30T13:29:12;12.40;83.80
42037;DHT22;75222;52.004;5.908;2024-01-30T13:31:38;12.40;84.10
42037;DHT22;75222;52.004;5.908;2024-01-30T13:34:05;12.40;83.90
42037;DHT22;75222;52.004;5.908;2024-01-30T13:36:32;12.40;83.10
42037;DHT22;75222;52.004;5.908;2024-01-30T13:38:57;12.30;83.00
42037;DHT22;75222;52.004;5.908;2024-01-30T13:41:23;12.20;82.60
42037;DHT22;75222;52.004;5.908;2024-01-30T13:43:49;12.10;82.70
42037;DHT22;75222;52.004;5.908;2024-01-30T13:46:14;12.00;82.90
42037;DHT22;75222;52.004;5.908;2024-01-30T13:48:40;11.90;82.70
42037;DHT22;75222;52.004;5.908;2024-01-30T13:51:06;11.80;82.90
42037;DHT22;75222;52.004;5.908;2024-01-30T13:53:31;11.70;83.30
42037;DHT22;75222;52.004;5.908;2024-01-30T13:55:57;11.60;83.60
42037;DHT22;75222;52.004;5.908;2024-01-30T13:58:22;11.50;83.80
42037;DHT22;75222;52.004;5.908;2024-01-30T14:00:48;11.50;84.10
42037;DHT22;75222;52.004;5.908;2024-01-30T14:03:14;11.40;84.70
42037;DHT22;75222;52.004;5.908;2024-01-30T14:05:40;11.40;84.30
42037;DHT22;75222;52.004;5.908;2024-01-30T14:08:06;11.40;84.40
42037;DHT22;75222;52.004;5.908;2024-01-30T14:10:32;11.30;84.50
42037;DHT22;75222;52.004;5.908;2024-01-30T14:12:58;11.30;84.70
42037;DHT22;75222;52.004;5.908;2024-01-30T14:15:23;11.20;84.70
42037;DHT22;75222;52.004;5.908;2024-01-30T14:17:49;11.20;84.90
42037;DHT22;75222;52.004;5.908;2024-01-30T14:20:15;11.10;84.90
42037;DHT22;75222;52.004;5.908;2024-01-30T14:22:44;11.20;85.00
42037;DHT22;75222;52.004;5.908;2024-01-30T14:25:10;11.10;84.90
42037;DHT22;75222;52.004;5.908;2024-01-30T14:27:36;11.10;84.90
42037;DHT22;75222;52.004;5.908;2024-01-30T14:30:02;11.10;84.80
42037;DHT22;75222;52.004;5.908;2024-01-30T14:32:28;11.10;84.80
42037;DHT22;75222;52.004;5.908;2024-01-30T14:34:54;11.10;84.80
42037;DHT22;75222;52.004;5.908;2024-01-30T14:37:20;11.00;84.80
42037;DHT22;75222;52.004;5.908;2024-01-30T14:39:47;11.00;85.00
42037;DHT22;75222;52.004;5.908;2024-01-30T14:42:13;11.00;85.00
42037;DHT22;75222;52.004;5.908;2024-01-30T14:44:39;11.00;85.00
42037;DHT22;75222;52.004;5.908;2024-01-30T14:47:05;11.00;85.00
42037;DHT22;75222;52.004;5.908;2024-01-30T14:49:31;11.00;84.90
42037;DHT22;75222;52.004;5.908;2024-01-30T14:51:56;11.00;85.00
42037;DHT22;75222;52.004;5.908;2024-01-30T14:54:24;11.00;85.00
42037;DHT22;75222;52.004;5.908;2024-01-30T14:56:49;11.00;85.00
42037;DHT22;75222;52.004;5.908;2024-01-30T14:59:16;10.90;85.60
42037;DHT22;75222;52.004;5.908;2024-01-30T15:01:42;10.90;85.00
42037;DHT22;75222;52.004;5.908;2024-01-30T15:04:08;10.80;85.10
42037;DHT22;75222;52.004;5.908;2024-01-30T15:06:34;10.80;85.30
42037;DHT22;75222;52.004;5.908;2024-01-30T15:08:59;10.80;85.50
42037;DHT22;75222;52.004;5.908;2024-01-30T15:11:25;10.70;85.60
42037;DHT22;75222;52.004;5.908;2024-01-30T15:13:51;10.60;85.80
42037;DHT22;75222;52.004;5.908;2024-01-30T15:16:16;10.60;86.10
42037;DHT22;75222;52.004;5.908;2024-01-30T15:18:42;10.60;86.30
42037;DHT22;75222;52.004;5.908;2024-01-30T15:21:07;10.50;86.40
42037;DHT22;75222;52.004;5.908;2024-01-30T15:23:33;10.50;86.50
42037;DHT22;75222;52.004;5.908;2024-01-30T15:25:58;10.60;86.60
42037;DHT22;75222;52.004;5.908;2024-01-30T15:28:37;10.50;86.50
42037;DHT22;75222;52.004;5.908;2024-01-30T15:31:04;10.50;86.60